»·PEaware :: SWA533 KDEN-KABQ

SWA533 :: KDEN-KABQ

FLIGHT INFORMATION

Flight Status: Arrived
Operator:
Southwest Airlines
More flights by this operator :: More flights under this callsign
Pilot: Anonymous 3069 (3069)
Aircraft: BOEING 737-200
(B732)
More flights by this aircraft type
Origin: KDEN Denver Intl
United States
Destination: KABQ Albuquerque Intl Sunport
United States
More flights between these airports :: More routes between these airports
Route: +FLYBY FRIHO4
File this flight plan on PilotEdge
Remarks: I WILL GET THIS WRONG, PLS 4GIV
Altitude:
(Current/Filed)
32,000ft
Speed:
(Current/Filed)
460kts
Departed: 13-Jan-18 10:30 AM
Arrived: 13-Jan-18 12:10 PM
Distance/Time
Traveled:
303nm/1:40
Distance/Time
To Go:
Arrived

Flight Plot

Page will automatically refresh every two minutes.

Flight plan parsing failed; only flown route is shown


Map Options




Map Legend


Flown Route
Filed Route
Departure Airport
Arrival Airport
Navaid (VOR, NDB)
Fix

Horizontal Profiles

Position Reports

Time Latitude Longitude Heading Altitude Ground
Speed
13-Jan-18 09:49 39.862501 -104.676912 359 5440ft 0kts
13-Jan-18 09:50 39.862501 -104.676912 359 5440ft 0kts
13-Jan-18 09:51 39.862501 -104.676912 359 5440ft 0kts
13-Jan-18 09:52 39.862501 -104.676912 359 5440ft 0kts
13-Jan-18 09:53 39.862501 -104.676912 359 5440ft 0kts
13-Jan-18 09:54 39.862501 -104.676912 359 5440ft 0kts
13-Jan-18 09:55 39.862501 -104.676912 359 5440ft 0kts
13-Jan-18 09:56 39.862501 -104.676912 359 5440ft 0kts
13-Jan-18 09:57 39.862501 -104.676912 359 5440ft 0kts
13-Jan-18 09:58 39.862501 -104.676912 359 5440ft 0kts
13-Jan-18 09:59 39.862501 -104.676912 359 5440ft 0kts
13-Jan-18 10:00 39.862501 -104.676912 359 5440ft 0kts
13-Jan-18 10:01 39.862501 -104.676912 359 5440ft 0kts
13-Jan-18 10:02 39.862501 -104.676912 359 5440ft 0kts
13-Jan-18 10:03 39.862501 -104.676912 359 5440ft 0kts
13-Jan-18 10:04 39.862501 -104.676912 359 5440ft 0kts
13-Jan-18 10:05 39.862501 -104.676912 359 5440ft 0kts
13-Jan-18 10:06 39.862501 -104.676912 359 5440ft 0kts
13-Jan-18 10:07 39.862501 -104.676912 359 5440ft 0kts
13-Jan-18 10:08 39.862501 -104.676912 359 5440ft 0kts
13-Jan-18 10:09 39.862501 -104.676912 359 5440ft 0kts
13-Jan-18 10:10 39.862501 -104.676912 359 5440ft 0kts
13-Jan-18 10:11 39.862501 -104.676912 359 5440ft 0kts
13-Jan-18 10:12 39.862501 -104.676912 359 5440ft 0kts
13-Jan-18 10:13 39.862501 -104.676912 359 5440ft 0kts
13-Jan-18 10:14 39.862501 -104.676912 359 5440ft 0kts
13-Jan-18 10:15 39.862501 -104.676912 359 5440ft 0kts
13-Jan-18 10:16 39.862501 -104.676912 359 5440ft 0kts
13-Jan-18 10:17 39.862501 -104.676912 359 5440ft 0kts
13-Jan-18 10:18 39.862501 -104.676912 360 5440ft 0kts
13-Jan-18 10:19 39.862501 -104.676912 359 5440ft 0kts
13-Jan-18 10:20 39.862501 -104.676912 359 5440ft 0kts
13-Jan-18 10:21 39.862317 -104.676913 0 5440ft 2kts
13-Jan-18 10:22 39.861961 -104.676570 269 5440ft 2kts
13-Jan-18 10:23 39.861962 -104.676303 269 5440ft 0kts
13-Jan-18 10:24 39.861962 -104.676303 269 5440ft 0kts
13-Jan-18 10:25 39.861962 -104.676303 269 5440ft 0kts
13-Jan-18 10:26 39.861962 -104.676303 269 5440ft 0kts
13-Jan-18 10:27 39.861962 -104.676303 269 5440ft 0kts
13-Jan-18 10:28 39.861962 -104.676435 268 5440ft 4kts
13-Jan-18 10:29 39.861321 -104.680992 270 5440ft 14kts
13-Jan-18 10:30 39.859444 -104.683940 182 5440ft 15kts
13-Jan-18 10:31 39.854622 -104.684024 180 5440ft 19kts
13-Jan-18 10:32 39.849020 -104.684062 180 5440ft 21kts
13-Jan-18 10:33 39.842951 -104.684137 183 5440ft 22kts
13-Jan-18 10:34 39.841126 -104.684144 182 5440ft 16kts
13-Jan-18 10:35 39.840653 -104.685080 271 5440ft 18kts
13-Jan-18 10:36 39.842055 -104.730034 275 7076ft 151kts
13-Jan-18 10:37 39.830809 -104.786633 256 9732ft 175kts
13-Jan-18 10:38 39.810583 -104.846240 222 11046ft 208kts
13-Jan-18 10:45 39.862501 -104.676912 359 5440ft 0kts
13-Jan-18 10:46 39.862501 -104.676912 359 5440ft 0kts
13-Jan-18 10:47 39.862501 -104.676912 359 5440ft 0kts
13-Jan-18 10:48 39.862501 -104.676912 359 5440ft 0kts
13-Jan-18 10:49 39.862501 -104.676912 359 5440ft 0kts
13-Jan-18 10:50 39.862501 -104.676912 359 5440ft 0kts
13-Jan-18 10:51 39.862501 -104.676912 359 5440ft 0kts
13-Jan-18 10:52 39.862501 -104.676912 359 5440ft 0kts
13-Jan-18 10:53 39.862501 -104.676912 359 5440ft 0kts
13-Jan-18 10:54 39.862501 -104.676912 359 5440ft 0kts
13-Jan-18 10:55 39.862501 -104.676912 359 5440ft 0kts
13-Jan-18 10:56 39.862503 -104.676912 359 5440ft 0kts
13-Jan-18 10:57 39.862131 -104.676911 349 5440ft 2kts
13-Jan-18 10:58 39.861963 -104.676248 269 5440ft 2kts
13-Jan-18 10:59 39.861963 -104.676196 269 5440ft 0kts
13-Jan-18 11:00 39.861963 -104.676237 269 5440ft 1kts
13-Jan-18 11:01 39.861317 -104.680616 269 5440ft 22kts
13-Jan-18 11:02 39.858064 -104.683955 177 5440ft 23kts
13-Jan-18 11:03 39.850414 -104.684009 181 5440ft 28kts
13-Jan-18 11:04 39.842605 -104.684136 177 5440ft 23kts
13-Jan-18 11:05 39.841404 -104.684145 183 5440ft 6kts
13-Jan-18 11:06 39.840663 -104.684678 271 5440ft 0kts
13-Jan-18 11:07 39.840663 -104.684678 271 5440ft 0kts
13-Jan-18 11:08 39.840939 -104.712858 271 5671ft 154kts
13-Jan-18 11:09 39.832108 -104.777340 253 7007ft 224kts
13-Jan-18 11:10 39.812163 -104.853001 252 9863ft 227kts
13-Jan-18 11:11 39.756022 -104.898815 208 12085ft 257kts
13-Jan-18 11:12 39.688321 -104.935436 208 13713ft 290kts
13-Jan-18 11:13 39.605255 -104.982185 208 14431ft 348kts
13-Jan-18 11:14 39.516080 -105.032199 208 16375ft 354kts
13-Jan-18 11:15 39.424608 -105.082528 208 18049ft 361kts
13-Jan-18 11:16 39.331642 -105.133028 208 19358ft 367kts
13-Jan-18 11:17 39.236286 -105.184029 208 20427ft 375kts
13-Jan-18 11:18 39.134228 -105.215468 189 21336ft 395kts
13-Jan-18 11:19 39.026480 -105.240434 199 22236ft 396kts
13-Jan-18 11:20 38.918590 -105.276013 201 23059ft 408kts
13-Jan-18 11:21 38.810288 -105.313258 201 24372ft 418kts
13-Jan-18 11:22 38.696989 -105.352785 201 25562ft 428kts
13-Jan-18 11:23 38.580896 -105.393348 201 26631ft 437kts
13-Jan-18 11:24 38.462838 -105.434471 201 27576ft 446kts
13-Jan-18 11:25 38.342205 -105.476340 201 28570ft 450kts
13-Jan-18 11:26 38.222671 -105.517588 201 29660ft 450kts
13-Jan-18 11:27 38.101531 -105.559398 202 30738ft 448kts
13-Jan-18 11:28 37.980817 -105.600727 202 31495ft 454kts
13-Jan-18 11:29 37.860270 -105.641958 201 32149ft 459kts
13-Jan-18 11:30 37.741075 -105.682929 201 33101ft 455kts
13-Jan-18 11:31 37.617913 -105.722496 203 33656ft 459kts
13-Jan-18 11:32 37.494857 -105.768303 203 34196ft 464kts
13-Jan-18 11:33 37.368667 -105.805731 195 34458ft 481kts
13-Jan-18 11:34 37.235612 -105.833715 195 34452ft 486kts
13-Jan-18 11:35 37.116043 -105.872038 207 34452ft 461kts
13-Jan-18 11:36 37.008986 -105.945915 223 34455ft 431kts
13-Jan-18 11:37 36.902382 -106.014941 209 34462ft 432kts
13-Jan-18 11:38 36.802485 -106.062974 206 34430ft 425kts
13-Jan-18 11:39 36.689096 -106.114678 206 32768ft 433kts
13-Jan-18 11:40 36.577861 -106.164659 206 31285ft 422kts
13-Jan-18 11:41 36.469419 -106.213190 206 30465ft 408kts
13-Jan-18 11:42 36.382382 -106.295726 228 30467ft 401kts
13-Jan-18 11:43 36.297006 -106.388173 228 30469ft 416kts
13-Jan-18 11:44 36.209527 -106.483563 228 30478ft 418kts
13-Jan-18 11:45 36.117202 -106.558022 193 29056ft 422kts
13-Jan-18 11:46 36.018601 -106.495105 128 28470ft 414kts
13-Jan-18 11:47 35.942338 -106.383336 128 27734ft 451kts
13-Jan-18 11:48 35.863653 -106.267005 128 27385ft 444kts
13-Jan-18 11:49 35.775866 -106.165274 164 26389ft 436kts
13-Jan-18 11:50 35.674015 -106.202475 236 24996ft 382kts
13-Jan-18 11:51 35.609920 -106.302737 238 22920ft 368kts
13-Jan-18 11:52 35.568480 -106.408345 277 20870ft 334kts
13-Jan-18 11:53 35.574226 -106.520439 269 18841ft 328kts
13-Jan-18 11:54 35.509959 -106.594205 202 16898ft 350kts
13-Jan-18 11:55 35.418912 -106.630413 202 15101ft 338kts
13-Jan-18 11:56 35.337167 -106.663254 202 15032ft 306kts
13-Jan-18 11:57 35.255209 -106.696236 202 15032ft 315kts
13-Jan-18 11:58 35.179589 -106.731439 224 14945ft 315kts
13-Jan-18 11:59 35.145878 -106.820061 258 13402ft 286kts
13-Jan-18 12:00 35.125948 -106.913754 258 11389ft 283kts
13-Jan-18 12:01 35.109894 -106.990982 250 10092ft 282kts
13-Jan-18 12:02 35.035844 -107.003172 120 9024ft 261kts
13-Jan-18 12:03 35.029445 -106.934968 88 8033ft 263kts
13-Jan-18 12:04 35.030702 -106.833127 74 7539ft 257kts
13-Jan-18 12:05 35.044998 -106.751919 87 7511ft 242kts
13-Jan-18 12:06 35.044775 -106.682902 88 6436ft 251kts
13-Jan-18 12:07 35.043313 -106.590439 90 7171ft 234kts
13-Jan-18 12:08 35.073503 -106.561105 333 8643ft 216kts
13-Jan-18 12:09 35.121318 -106.622876 308 9053ft 297kts
13-Jan-18 12:10 35.147931 -106.710474 258 9027ft 267kts
13-Jan-18 12:11 35.125083 -106.789474 223 8647ft 237kts
13-Jan-18 12:12 35.068952 -106.785279 127 8583ft 206kts
13-Jan-18 12:13 35.043612 -106.722819 85 7117ft 206kts
13-Jan-18 12:14 35.044242 -106.661118 87 6043ft 149kts
13-Jan-18 12:15 35.044333 -106.611564 89 5363ft 132kts
13-Jan-18 12:16 35.045741 -106.591557 294 5363ft 12kts
13-Jan-18 12:17 35.045781 -106.599569 268 5363ft 35kts
13-Jan-18 12:18 35.045774 -106.613180 257 5363ft 23kts
13-Jan-18 12:19 35.046887 -106.614889 11 5363ft 0kts
13-Jan-18 12:20 35.046887 -106.614889 11 5363ft 0kts

Navigation Log

Ident Type
Flight plan parsing failed, navigation log unavailable